sensor_id;sensor_type;location;lat;lon;timestamp;pressure;altitude;pressure_sealevel;temperature;humidity
39105;BME280;46464;51.154;13.812;2023-11-21T00:01:20;52576.47;;;-146.96;100.00
39105;BME280;46464;51.154;13.812;2023-11-21T00:03:47;52545.94;;;-146.96;100.00
39105;BME280;46464;51.154;13.812;2023-11-21T00:06:13;52562.22;;;-146.96;100.00
39105;BME280;46464;51.154;13.812;2023-11-21T00:08:41;52578.50;;;-146.96;100.00
39105;BME280;46464;51.154;13.812;2023-11-21T00:11:07;52521.53;;;-146.96;100.00
39105;BME280;46464;51.154;13.812;2023-11-21T00:13:34;52568.34;;;-146.96;100.00
39105;BME280;46464;51.154;13.812;2023-11-21T00:16:01;52539.84;;;-146.96;100.00
39105;BME280;46464;51.154;13.812;2023-11-21T00:18:28;52537.81;;;-146.96;100.00
39105;BME280;46464;51.154;13.812;2023-11-21T00:20:54;52529.66;;;-146.96;100.00
39105;BME280;46464;51.154;13.812;2023-11-21T00:23:21;52539.84;;;-146.96;100.00
39105;BME280;46464;51.154;13.812;2023-11-21T00:25:47;52617.16;;;-146.96;100.00
39105;BME280;46464;51.154;13.812;2023-11-21T00:28:15;52562.22;;;-146.96;100.00
39105;BME280;46464;51.154;13.812;2023-11-21T00:30:41;52578.50;;;-146.96;100.00
39105;BME280;46464;51.154;13.812;2023-11-21T00:33:08;52537.81;;;-146.96;100.00
39105;BME280;46464;51.154;13.812;2023-11-21T00:35:34;52535.78;;;-146.96;100.00
39105;BME280;46464;51.154;13.812;2023-11-21T00:38:01;52527.63;;;-146.96;100.00
39105;BME280;46464;51.154;13.812;2023-11-21T00:40:29;52574.44;;;-146.96;100.00
39105;BME280;46464;51.154;13.812;2023-11-21T00:42:57;52521.53;;;-146.96;100.00
39105;BME280;46464;51.154;13.812;2023-11-21T00:45:24;52554.09;;;-146.96;100.00
39105;BME280;46464;51.154;13.812;2023-11-21T00:47:50;52517.47;;;-146.96;100.00
39105;BME280;46464;51.154;13.812;2023-11-21T00:50:17;52541.88;;;-146.96;100.00
39105;BME280;46464;51.154;13.812;2023-11-21T00:52:44;52554.09;;;-146.96;100.00
39105;BME280;46464;51.154;13.812;2023-11-21T00:55:11;52513.41;;;-146.96;100.00
39105;BME280;46464;51.154;13.812;2023-11-21T00:57:38;52511.34;;;-146.96;100.00
39105;BME280;46464;51.154;13.812;2023-11-21T01:00:05;52535.78;;;-146.96;100.00
39105;BME280;46464;51.154;13.812;2023-11-21T01:02:52;52519.50;;;-146.96;100.00
39105;BME280;46464;51.154;13.812;2023-11-21T01:05:19;52539.84;;;-146.96;100.00
39105;BME280;46464;51.154;13.812;2023-11-21T01:07:49;52535.78;;;-146.96;100.00
39105;BME280;46464;51.154;13.812;2023-11-21T01:10:16;52562.22;;;-146.96;100.00
39105;BME280;46464;51.154;13.812;2023-11-21T01:12:47;52545.94;;;-146.96;100.00
39105;BME280;46464;51.154;13.812;2023-11-21T01:15:15;52552.06;;;-146.96;100.00
39105;BME280;46464;51.154;13.812;2023-11-21T01:17:42;52511.34;;;-146.96;100.00
39105;BME280;46464;51.154;13.812;2023-11-21T01:20:16;52533.75;;;-146.96;100.00
39105;BME280;46464;51.154;13.812;2023-11-21T01:22:44;52545.94;;;-146.96;100.00
39105;BME280;46464;51.154;13.812;2023-11-21T01:27:46;52537.81;;;-146.96;100.00
39105;BME280;46464;51.154;13.812;2023-11-21T01:30:17;52533.75;;;-146.96;100.00
39105;BME280;46464;51.154;13.812;2023-11-21T01:32:49;52499.16;;;-146.96;100.00
39105;BME280;46464;51.154;13.812;2023-11-21T01:35:17;52529.66;;;-146.96;100.00
39105;BME280;46464;51.154;13.812;2023-11-21T01:37:43;52505.25;;;-146.96;100.00
39105;BME280;46464;51.154;13.812;2023-11-21T01:40:14;52517.47;;;-146.96;100.00
39105;BME280;46464;51.154;13.812;2023-11-21T01:42:42;52576.47;;;-146.96;100.00
39105;BME280;46464;51.154;13.812;2023-11-21T01:45:15;52543.91;;;-146.96;100.00
39105;BME280;46464;51.154;13.812;2023-11-21T01:47:53;52511.34;;;-146.96;100.00
39105;BME280;46464;51.154;13.812;2023-11-21T01:50:23;52562.22;;;-146.96;100.00
39105;BME280;46464;51.154;13.812;2023-11-21T01:52:55;52539.84;;;-146.96;100.00
39105;BME280;46464;51.154;13.812;2023-11-21T01:55:27;52562.22;;;-146.96;100.00
39105;BME280;46464;51.154;13.812;2023-11-21T01:57:59;52550.03;;;-146.96;100.00
39105;BME280;46464;51.154;13.812;2023-11-21T02:00:34;52554.09;;;-146.96;100.00
39105;BME280;46464;51.154;13.812;2023-11-21T02:03:04;52519.50;;;-146.96;100.00
39105;BME280;46464;51.154;13.812;2023-11-21T02:05:34;52523.56;;;-146.96;100.00
39105;BME280;46464;51.154;13.812;2023-11-21T02:08:01;52590.72;;;-146.96;100.00
39105;BME280;46464;51.154;13.812;2023-11-21T02:10:31;52562.22;;;-146.96;100.00
39105;BME280;46464;51.154;13.812;2023-11-21T02:13:11;52525.59;;;-146.96;100.00
39105;BME280;46464;51.154;13.812;2023-11-21T02:15:46;52537.81;;;-146.96;100.00
39105;BME280;46464;51.154;13.812;2023-11-21T02:18:17;52572.41;;;-146.96;100.00
39105;BME280;46464;51.154;13.812;2023-11-21T02:21:00;52529.66;;;-146.96;100.00
39105;BME280;46464;51.154;13.812;2023-11-21T02:23:39;52537.81;;;-146.96;100.00
39105;BME280;46464;51.154;13.812;2023-11-21T02:26:28;52521.53;;;-146.96;100.00
39105;BME280;46464;51.154;13.812;2023-11-21T02:28:59;52562.22;;;-146.96;100.00
39105;BME280;46464;51.154;13.812;2023-11-21T02:31:36;52572.41;;;-146.96;100.00
39105;BME280;46464;51.154;13.812;2023-11-21T02:34:27;52564.25;;;-146.96;100.00
39105;BME280;46464;51.154;13.812;2023-11-21T02:36:54;52533.75;;;-146.96;100.00
39105;BME280;46464;51.154;13.812;2023-11-21T02:39:22;52533.75;;;-146.96;100.00
39105;BME280;46464;51.154;13.812;2023-11-21T02:41:54;52507.28;;;-146.96;100.00
39105;BME280;46464;51.154;13.812;2023-11-21T02:44:22;52533.75;;;-146.96;100.00
39105;BME280;46464;51.154;13.812;2023-11-21T02:46:55;52562.22;;;-146.96;100.00
39105;BME280;46464;51.154;13.812;2023-11-21T02:49:24;52511.34;;;-146.96;100.00
39105;BME280;46464;51.154;13.812;2023-11-21T02:51:54;52550.03;;;-146.96;100.00
39105;BME280;46464;51.154;13.812;2023-11-21T02:54:21;52511.34;;;-146.96;100.00
39105;BME280;46464;51.154;13.812;2023-11-21T02:56:51;52517.47;;;-146.96;100.00
39105;BME280;46464;51.154;13.812;2023-11-21T02:59:18;52537.81;;;-146.96;100.00
39105;BME280;46464;51.154;13.812;2023-11-21T03:01:51;52545.94;;;-146.96;100.00
39105;BME280;46464;51.154;13.812;2023-11-21T03:04:18;52521.53;;;-146.96;100.00
39105;BME280;46464;51.154;13.812;2023-11-21T03:06:49;52531.72;;;-146.96;100.00
39105;BME280;46464;51.154;13.812;2023-11-21T03:09:19;52531.72;;;-146.96;100.00
39105;BME280;46464;51.154;13.812;2023-11-21T03:11:46;52558.16;;;-146.96;100.00
39105;BME280;46464;51.154;13.812;2023-11-21T03:14:17;52545.94;;;-146.96;100.00
39105;BME280;46464;51.154;13.812;2023-11-21T03:16:48;52531.72;;;-146.96;100.00
39105;BME280;46464;51.154;13.812;2023-11-21T03:19:17;52547.97;;;-146.96;100.00
39105;BME280;46464;51.154;13.812;2023-11-21T03:21:47;52537.81;;;-146.96;100.00
39105;BME280;46464;51.154;13.812;2023-11-21T03:24:14;52523.56;;;-146.96;100.00
39105;BME280;46464;51.154;13.812;2023-11-21T03:26:48;52564.25;;;-146.96;100.00
39105;BME280;46464;51.154;13.812;2023-11-21T03:29:14;52550.03;;;-146.96;100.00
39105;BME280;46464;51.154;13.812;2023-11-21T03:31:41;52556.13;;;-146.96;100.00
39105;BME280;46464;51.154;13.812;2023-11-21T03:34:20;52543.91;;;-146.96;100.00
39105;BME280;46464;51.154;13.812;2023-11-21T03:36:49;52582.56;;;-146.96;100.00
39105;BME280;46464;51.154;13.812;2023-11-21T03:39:17;52535.78;;;-146.96;100.00
39105;BME280;46464;51.154;13.812;2023-11-21T03:41:43;52537.81;;;-146.96;100.00
39105;BME280;46464;51.154;13.812;2023-11-21T03:44:10;52543.91;;;-146.96;100.00
39105;BME280;46464;51.154;13.812;2023-11-21T03:46:37;52572.41;;;-146.96;100.00
39105;BME280;46464;51.154;13.812;2023-11-21T03:49:04;52560.19;;;-146.96;100.00
39105;BME280;46464;51.154;13.812;2023-11-21T03:51:30;52574.44;;;-146.96;100.00
39105;BME280;46464;51.154;13.812;2023-11-21T03:53:58;52543.91;;;-146.96;100.00
39105;BME280;46464;51.154;13.812;2023-11-21T03:56:24;52566.31;;;-146.96;100.00
39105;BME280;46464;51.154;13.812;2023-11-21T04:01:27;52580.53;;;-146.96;100.00
39105;BME280;46464;51.154;13.812;2023-11-21T04:03:53;52545.94;;;-146.96;100.00
39105;BME280;46464;51.154;13.812;2023-11-21T04:06:20;52580.53;;;-146.96;100.00
39105;BME280;46464;51.154;13.812;2023-11-21T04:08:46;52552.06;;;-146.96;100.00
39105;BME280;46464;51.154;13.812;2023-11-21T04:11:16;52554.09;;;-146.96;100.00
39105;BME280;46464;51.154;13.812;2023-11-21T04:13:42;52541.88;;;-146.96;100.00
39105;BME280;46464;51.154;13.812;2023-11-21T04:16:09;52556.13;;;-146.96;100.00
39105;BME280;46464;51.154;13.812;2023-11-21T04:18:36;52554.09;;;-146.96;100.00
39105;BME280;46464;51.154;13.812;2023-11-21T04:21:05;52554.09;;;-146.96;100.00
39105;BME280;46464;51.154;13.812;2023-11-21T04:23:32;52580.53;;;-146.96;100.00
39105;BME280;46464;51.154;13.812;2023-11-21T04:26:00;52564.25;;;-146.96;100.00
39105;BME280;46464;51.154;13.812;2023-11-21T04:28:29;52554.09;;;-146.96;100.00
39105;BME280;46464;51.154;13.812;2023-11-21T04:30:56;52582.56;;;-146.96;100.00
39105;BME280;46464;51.154;13.812;2023-11-21T04:33:22;52541.88;;;-146.96;100.00
39105;BME280;46464;51.154;13.812;2023-11-21T04:35:49;52582.56;;;-146.96;100.00
39105;BME280;46464;51.154;13.812;2023-11-21T04:38:16;52539.84;;;-146.96;100.00
39105;BME280;46464;51.154;13.812;2023-11-21T04:40:42;52552.06;;;-146.96;100.00
39105;BME280;46464;51.154;13.812;2023-11-21T04:43:09;52562.22;;;-146.96;100.00
39105;BME280;46464;51.154;13.812;2023-11-21T04:45:35;52552.06;;;-146.96;100.00
39105;BME280;46464;51.154;13.812;2023-11-21T04:48:02;52531.72;;;-146.96;100.00
39105;BME280;46464;51.154;13.812;2023-11-21T04:50:29;52552.06;;;-146.96;100.00
39105;BME280;46464;51.154;13.812;2023-11-21T04:52:56;52594.78;;;-146.96;100.00
39105;BME280;46464;51.154;13.812;2023-11-21T04:55:23;52596.81;;;-146.96;100.00
39105;BME280;46464;51.154;13.812;2023-11-21T04:57:49;52543.91;;;-146.96;100.00
39105;BME280;46464;51.154;13.812;2023-11-21T05:00:16;52609.03;;;-146.96;100.00
39105;BME280;46464;51.154;13.812;2023-11-21T05:02:43;52570.38;;;-146.96;100.00
39105;BME280;46464;51.154;13.812;2023-11-21T05:07:48;52588.69;;;-146.96;100.00
39105;BME280;46464;51.154;13.812;2023-11-21T05:10:15;52568.34;;;-146.96;100.00
39105;BME280;46464;51.154;13.812;2023-11-21T05:12:42;52552.06;;;-146.96;100.00
39105;BME280;46464;51.154;13.812;2023-11-21T05:15:14;52517.47;;;-146.96;100.00
39105;BME280;46464;51.154;13.812;2023-11-21T05:17:41;52564.25;;;-146.96;100.00
39105;BME280;46464;51.154;13.812;2023-11-21T05:20:16;52570.38;;;-146.96;100.00
39105;BME280;46464;51.154;13.812;2023-11-21T05:22:47;52539.84;;;-146.96;100.00
39105;BME280;46464;51.154;13.812;2023-11-21T05:25:17;52586.66;;;-146.96;100.00
39105;BME280;46464;51.154;13.812;2023-11-21T05:27:48;52560.19;;;-146.96;100.00
39105;BME280;46464;51.154;13.812;2023-11-21T05:30:17;52564.25;;;-146.96;100.00
39105;BME280;46464;51.154;13.812;2023-11-21T05:32:45;52574.44;;;-146.96;100.00
39105;BME280;46464;51.154;13.812;2023-11-21T05:35:13;52560.19;;;-146.96;100.00
39105;BME280;46464;51.154;13.812;2023-11-21T05:37:44;52588.69;;;-146.96;100.00
39105;BME280;46464;51.154;13.812;2023-11-21T05:40:12;52556.13;;;-146.96;100.00
39105;BME280;46464;51.154;13.812;2023-11-21T05:42:39;52535.78;;;-146.96;100.00
39105;BME280;46464;51.154;13.812;2023-11-21T05:45:07;52584.63;;;-146.96;100.00
39105;BME280;46464;51.154;13.812;2023-11-21T05:47:43;52558.16;;;-146.96;100.00
39105;BME280;46464;51.154;13.812;2023-11-21T05:50:14;52529.66;;;-146.96;100.00
39105;BME280;46464;51.154;13.812;2023-11-21T05:52:43;52541.88;;;-146.96;100.00
39105;BME280;46464;51.154;13.812;2023-11-21T05:55:12;52588.69;;;-146.96;100.00
39105;BME280;46464;51.154;13.812;2023-11-21T05:57:41;52604.97;;;-146.96;100.00
39105;BME280;46464;51.154;13.812;2023-11-21T06:00:11;52572.41;;;-146.96;100.00
39105;BME280;46464;51.154;13.812;2023-11-21T06:02:39;52570.38;;;-146.96;100.00
39105;BME280;46464;51.154;13.812;2023-11-21T06:07:38;52562.22;;;-146.96;100.00
39105;BME280;46464;51.154;13.812;2023-11-21T06:10:06;52564.25;;;-146.96;100.00
39105;BME280;46464;51.154;13.812;2023-11-21T06:12:35;52572.41;;;-146.96;100.00
39105;BME280;46464;51.154;13.812;2023-11-21T06:15:06;52562.22;;;-146.96;100.00
39105;BME280;46464;51.154;13.812;2023-11-21T06:17:35;52566.31;;;-146.96;100.00
39105;BME280;46464;51.154;13.812;2023-11-21T06:20:08;52570.38;;;-146.96;100.00
39105;BME280;46464;51.154;13.812;2023-11-21T06:22:42;52552.06;;;-146.96;100.00
39105;BME280;46464;51.154;13.812;2023-11-21T06:25:10;52570.38;;;-146.96;100.00
39105;BME280;46464;51.154;13.812;2023-11-21T06:27:44;52533.75;;;-146.96;100.00
39105;BME280;46464;51.154;13.812;2023-11-21T06:30:18;52600.88;;;-146.96;100.00
39105;BME280;46464;51.154;13.812;2023-11-21T06:32:45;52582.56;;;-146.96;100.00
39105;BME280;46464;51.154;13.812;2023-11-21T06:35:14;52578.50;;;-146.96;100.00
39105;BME280;46464;51.154;13.812;2023-11-21T06:37:50;52564.25;;;-146.96;100.00
39105;BME280;46464;51.154;13.812;2023-11-21T06:40:31;52562.22;;;-146.96;100.00
39105;BME280;46464;51.154;13.812;2023-11-21T06:43:19;52578.50;;;-146.96;100.00
39105;BME280;46464;51.154;13.812;2023-11-21T06:45:48;52543.91;;;-146.96;100.00
39105;BME280;46464;51.154;13.812;2023-11-21T06:48:29;52537.81;;;-146.96;100.00
39105;BME280;46464;51.154;13.812;2023-11-21T06:50:57;52521.53;;;-146.96;100.00
39105;BME280;46464;51.154;13.812;2023-11-21T06:53:43;52545.94;;;-146.96;100.00
39105;BME280;46464;51.154;13.812;2023-11-21T06:56:17;52572.41;;;-146.96;100.00
39105;BME280;46464;51.154;13.812;2023-11-21T06:58:49;52547.97;;;-146.96;100.00
39105;BME280;46464;51.154;13.812;2023-11-21T07:01:51;52539.84;;;-146.96;100.00
39105;BME280;46464;51.154;13.812;2023-11-21T07:04:26;52570.38;;;-146.96;100.00
39105;BME280;46464;51.154;13.812;2023-11-21T07:07:12;52578.50;;;-146.96;100.00
39105;BME280;46464;51.154;13.812;2023-11-21T07:09:41;52554.09;;;-146.96;100.00
39105;BME280;46464;51.154;13.812;2023-11-21T07:12:16;52541.88;;;-146.96;100.00
39105;BME280;46464;51.154;13.812;2023-11-21T07:14:53;52570.38;;;-146.96;100.00
39105;BME280;46464;51.154;13.812;2023-11-21T07:17:22;52535.78;;;-146.96;100.00
39105;BME280;46464;51.154;13.812;2023-11-21T07:20:07;52592.75;;;-146.96;100.00
39105;BME280;46464;51.154;13.812;2023-11-21T07:22:36;52574.44;;;-146.96;100.00
39105;BME280;46464;51.154;13.812;2023-11-21T07:25:03;52578.50;;;-146.96;100.00
39105;BME280;46464;51.154;13.812;2023-11-21T07:27:33;52574.44;;;-146.96;100.00
39105;BME280;46464;51.154;13.812;2023-11-21T07:30:08;52574.44;;;-146.96;100.00
39105;BME280;46464;51.154;13.812;2023-11-21T07:32:40;52588.69;;;-146.96;100.00
39105;BME280;46464;51.154;13.812;2023-11-21T07:35:11;52586.66;;;-146.96;100.00
39105;BME280;46464;51.154;13.812;2023-11-21T07:37:38;52576.47;;;-146.96;100.00
39105;BME280;46464;51.154;13.812;2023-11-21T07:40:06;52586.66;;;-146.96;100.00
39105;BME280;46464;51.154;13.812;2023-11-21T07:42:43;52590.72;;;-146.96;100.00
39105;BME280;46464;51.154;13.812;2023-11-21T07:45:11;52578.50;;;-146.96;100.00
39105;BME280;46464;51.154;13.812;2023-11-21T07:47:50;52529.66;;;-146.96;100.00
39105;BME280;46464;51.154;13.812;2023-11-21T07:50:44;52543.91;;;-146.96;100.00
39105;BME280;46464;51.154;13.812;2023-11-21T07:53:26;52568.34;;;-146.96;100.00
39105;BME280;46464;51.154;13.812;2023-11-21T07:56:04;52580.53;;;-146.96;100.00
39105;BME280;46464;51.154;13.812;2023-11-21T07:58:51;52594.78;;;-146.96;100.00
39105;BME280;46464;51.154;13.812;2023-11-21T08:01:48;52547.97;;;-146.96;100.00
39105;BME280;46464;51.154;13.812;2023-11-21T08:04:18;52568.34;;;-146.96;100.00
39105;BME280;46464;51.154;13.812;2023-11-21T08:06:58;52558.16;;;-146.96;100.00
39105;BME280;46464;51.154;13.812;2023-11-21T08:09:31;52554.09;;;-146.96;100.00
39105;BME280;46464;51.154;13.812;2023-11-21T08:12:06;52543.91;;;-146.96;100.00
39105;BME280;46464;51.154;13.812;2023-11-21T08:14:34;52554.09;;;-146.96;100.00
39105;BME280;46464;51.154;13.812;2023-11-21T08:17:53;52570.38;;;-146.96;100.00
39105;BME280;46464;51.154;13.812;2023-11-21T08:20:27;52604.97;;;-146.96;100.00
39105;BME280;46464;51.154;13.812;2023-11-21T08:23:03;52607.00;;;-146.96;100.00
39105;BME280;46464;51.154;13.812;2023-11-21T08:25:32;52584.63;;;-146.96;100.00
39105;BME280;46464;51.154;13.812;2023-11-21T08:28:01;52550.03;;;-146.96;100.00
39105;BME280;46464;51.154;13.812;2023-11-21T08:30:30;52594.78;;;-146.96;100.00
39105;BME280;46464;51.154;13.812;2023-11-21T08:32:58;52552.06;;;-146.96;100.00
39105;BME280;46464;51.154;13.812;2023-11-21T08:35:25;52545.94;;;-146.96;100.00
39105;BME280;46464;51.154;13.812;2023-11-21T08:37:52;52566.31;;;-146.96;100.00
39105;BME280;46464;51.154;13.812;2023-11-21T08:40:21;52572.41;;;-146.96;100.00
39105;BME280;46464;51.154;13.812;2023-11-21T08:42:48;52576.47;;;-146.96;100.00
39105;BME280;46464;51.154;13.812;2023-11-21T08:45:15;52580.53;;;-146.96;100.00
39105;BME280;46464;51.154;13.812;2023-11-21T08:47:44;52582.56;;;-146.96;100.00
39105;BME280;46464;51.154;13.812;2023-11-21T08:50:12;52576.47;;;-146.96;100.00
39105;BME280;46464;51.154;13.812;2023-11-21T08:52:39;52574.44;;;-146.96;100.00
39105;BME280;46464;51.154;13.812;2023-11-21T08:55:07;52580.53;;;-146.96;100.00
39105;BME280;46464;51.154;13.812;2023-11-21T08:57:35;52562.22;;;-146.96;100.00
39105;BME280;46464;51.154;13.812;2023-11-21T09:00:03;52592.75;;;-146.96;100.00
39105;BME280;46464;51.154;13.812;2023-11-21T09:02:33;52596.81;;;-146.96;100.00
39105;BME280;46464;51.154;13.812;2023-11-21T09:05:00;52568.34;;;-146.96;100.00
39105;BME280;46464;51.154;13.812;2023-11-21T09:07:30;52576.47;;;-146.96;100.00
39105;BME280;46464;51.154;13.812;2023-11-21T09:12:32;52584.63;;;-146.96;100.00
39105;BME280;46464;51.154;13.812;2023-11-21T09:14:59;52562.22;;;-146.96;100.00
39105;BME280;46464;51.154;13.812;2023-11-21T09:17:26;52607.00;;;-146.96;100.00
39105;BME280;46464;51.154;13.812;2023-11-21T09:19:53;52547.97;;;-146.96;100.00
39105;BME280;46464;51.154;13.812;2023-11-21T09:22:19;52600.88;;;-146.96;100.00
39105;BME280;46464;51.154;13.812;2023-11-21T09:24:46;52572.41;;;-146.96;100.00
39105;BME280;46464;51.154;13.812;2023-11-21T09:27:14;52541.88;;;-146.96;100.00
39105;BME280;46464;51.154;13.812;2023-11-21T09:29:42;52537.81;;;-146.96;100.00
39105;BME280;46464;51.154;13.812;2023-11-21T09:32:08;52584.63;;;-146.96;100.00
39105;BME280;46464;51.154;13.812;2023-11-21T09:34:38;52564.25;;;-146.96;100.00
39105;BME280;46464;51.154;13.812;2023-11-21T09:37:05;52609.03;;;-146.96;100.00
39105;BME280;46464;51.154;13.812;2023-11-21T09:39:33;52592.75;;;-146.96;100.00
39105;BME280;46464;51.154;13.812;2023-11-21T09:42:11;52617.16;;;-146.96;100.00
39105;BME280;46464;51.154;13.812;2023-11-21T09:45:01;52627.34;;;-146.96;100.00
39105;BME280;46464;51.154;13.812;2023-11-21T09:47:31;52604.97;;;-146.96;100.00
39105;BME280;46464;51.154;13.812;2023-11-21T09:50:01;52633.44;;;-146.96;100.00
39105;BME280;46464;51.154;13.812;2023-11-21T09:52:28;52596.81;;;-146.96;100.00
39105;BME280;46464;51.154;13.812;2023-11-21T09:54:56;52584.63;;;-146.96;100.00
39105;BME280;46464;51.154;13.812;2023-11-21T09:57:25;52604.97;;;-146.96;100.00
39105;BME280;46464;51.154;13.812;2023-11-21T09:59:52;52615.13;;;-146.96;100.00
39105;BME280;46464;51.154;13.812;2023-11-21T10:02:27;52552.06;;;-146.96;100.00
39105;BME280;46464;51.154;13.812;2023-11-21T10:04:59;52633.44;;;-146.96;100.00
39105;BME280;46464;51.154;13.812;2023-11-21T10:07:28;52635.47;;;-146.96;100.00
39105;BME280;46464;51.154;13.812;2023-11-21T10:09:58;52641.59;;;-146.96;100.00
39105;BME280;46464;51.154;13.812;2023-11-21T10:12:26;52641.59;;;-146.96;100.00
39105;BME280;46464;51.154;13.812;2023-11-21T10:14:54;52670.06;;;-146.96;100.00
39105;BME280;46464;51.154;13.812;2023-11-21T10:17:24;52625.31;;;-146.96;100.00
39105;BME280;46464;51.154;13.812;2023-11-21T10:19:53;52637.53;;;-146.96;100.00
39105;BME280;46464;51.154;13.812;2023-11-21T10:22:23;52645.66;;;-146.96;100.00
39105;BME280;46464;51.154;13.812;2023-11-21T10:24:52;52572.41;;;-146.96;100.00
39105;BME280;46464;51.154;13.812;2023-11-21T10:27:20;52653.81;;;-146.96;100.00
39105;BME280;46464;51.154;13.812;2023-11-21T10:29:46;52609.03;;;-146.96;100.00
39105;BME280;46464;51.154;13.812;2023-11-21T10:32:13;52615.13;;;-146.96;100.00
39105;BME280;46464;51.154;13.812;2023-11-21T10:34:40;52645.66;;;-146.96;100.00
39105;BME280;46464;51.154;13.812;2023-11-21T10:37:11;52651.75;;;-146.96;100.00
39105;BME280;46464;51.154;13.812;2023-11-21T10:39:39;52590.72;;;-146.96;100.00
39105;BME280;46464;51.154;13.812;2023-11-21T10:42:08;52666.00;;;-146.96;100.00
39105;BME280;46464;51.154;13.812;2023-11-21T10:44:45;52619.22;;;-146.96;100.00
39105;BME280;46464;51.154;13.812;2023-11-21T10:47:14;52643.63;;;-146.96;100.00
39105;BME280;46464;51.154;13.812;2023-11-21T10:49:42;52653.81;;;-146.96;100.00
39105;BME280;46464;51.154;13.812;2023-11-21T10:52:09;52627.34;;;-146.96;100.00
39105;BME280;46464;51.154;13.812;2023-11-21T10:54:47;52649.72;;;-146.96;100.00
39105;BME280;46464;51.154;13.812;2023-11-21T10:57:19;52627.34;;;-146.96;100.00
39105;BME280;46464;51.154;13.812;2023-11-21T10:59:54;52641.59;;;-146.96;100.00
39105;BME280;46464;51.154;13.812;2023-11-21T11:02:23;52627.34;;;-146.96;100.00
39105;BME280;46464;51.154;13.812;2023-11-21T11:04:55;52625.31;;;-146.96;100.00
39105;BME280;46464;51.154;13.812;2023-11-21T11:10:05;52647.69;;;-146.96;100.00
39105;BME280;46464;51.154;13.812;2023-11-21T11:12:39;52629.38;;;-146.96;100.00
39105;BME280;46464;51.154;13.812;2023-11-21T11:15:28;52619.22;;;-146.96;100.00
39105;BME280;46464;51.154;13.812;2023-11-21T11:17:54;52672.13;;;-146.96;100.00
39105;BME280;46464;51.154;13.812;2023-11-21T11:20:31;52657.88;;;-146.96;100.00
39105;BME280;46464;51.154;13.812;2023-11-21T11:26:34;52653.81;;;-146.96;100.00
39105;BME280;46464;51.154;13.812;2023-11-21T11:32:12;52631.41;;;-146.96;100.00
39105;BME280;46464;51.154;13.812;2023-11-21T11:34:53;52661.94;;;-146.96;100.00
39105;BME280;46464;51.154;13.812;2023-11-21T11:37:25;52702.63;;;-146.96;100.00
39105;BME280;46464;51.154;13.812;2023-11-21T11:39:51;52674.16;;;-146.96;100.00
39105;BME280;46464;51.154;13.812;2023-11-21T11:42:18;52633.44;;;-146.96;100.00
39105;BME280;46464;51.154;13.812;2023-11-21T11:55:16;52674.16;;;-146.96;100.00
39105;BME280;46464;51.154;13.812;2023-11-21T11:57:47;52666.00;;;-146.96;100.00
39105;BME280;46464;51.154;13.812;2023-11-21T12:02:46;52659.91;;;-146.96;100.00
39105;BME280;46464;51.154;13.812;2023-11-21T12:05:17;52700.59;;;-146.96;100.00
39105;BME280;46464;51.154;13.812;2023-11-21T12:07:52;52657.88;;;-146.96;100.00
39105;BME280;46464;51.154;13.812;2023-11-21T12:10:25;52655.84;;;-146.96;100.00
39105;BME280;46464;51.154;13.812;2023-11-21T12:12:55;52645.66;;;-146.96;100.00
39105;BME280;46464;51.154;13.812;2023-11-21T12:15:22;52682.28;;;-146.96;100.00
39105;BME280;46464;51.154;13.812;2023-11-21T12:17:51;52655.84;;;-146.96;100.00
39105;BME280;46464;51.154;13.812;2023-11-21T12:20:19;52674.16;;;-146.96;100.00
39105;BME280;46464;51.154;13.812;2023-11-21T12:25:33;52672.13;;;-146.96;100.00
39105;BME280;46464;51.154;13.812;2023-11-21T12:28:01;52645.66;;;-146.96;100.00
39105;BME280;46464;51.154;13.812;2023-11-21T12:30:32;52674.16;;;-146.96;100.00
39105;BME280;46464;51.154;13.812;2023-11-21T12:33:02;52663.97;;;-146.96;100.00
39105;BME280;46464;51.154;13.812;2023-11-21T12:35:31;52674.16;;;-146.96;100.00
39105;BME280;46464;51.154;13.812;2023-11-21T12:38:01;52678.22;;;-146.96;100.00
39105;BME280;46464;51.154;13.812;2023-11-21T12:40:32;52639.56;;;-146.96;100.00
39105;BME280;46464;51.154;13.812;2023-11-21T12:43:02;52639.56;;;-146.96;100.00
39105;BME280;46464;51.154;13.812;2023-11-21T12:45:31;52663.97;;;-146.96;100.00
39105;BME280;46464;51.154;13.812;2023-11-21T12:50:52;52657.88;;;-146.96;100.00
39105;BME280;46464;51.154;13.812;2023-11-21T12:53:20;52714.84;;;-146.96;100.00
39105;BME280;46464;51.154;13.812;2023-11-21T12:55:47;52672.13;;;-146.96;100.00
39105;BME280;46464;51.154;13.812;2023-11-21T12:58:17;52663.97;;;-146.96;100.00
39105;BME280;46464;51.154;13.812;2023-11-21T13:00:55;52690.44;;;-146.96;100.00
39105;BME280;46464;51.154;13.812;2023-11-21T13:03:25;52678.22;;;-146.96;100.00
39105;BME280;46464;51.154;13.812;2023-11-21T13:05:55;52692.47;;;-146.96;100.00
39105;BME280;46464;51.154;13.812;2023-11-21T13:08:24;52637.53;;;-146.96;100.00
39105;BME280;46464;51.154;13.812;2023-11-21T13:10:53;52639.56;;;-146.96;100.00
39105;BME280;46464;51.154;13.812;2023-11-21T13:13:23;52663.97;;;-146.96;100.00
39105;BME280;46464;51.154;13.812;2023-11-21T13:15:52;52688.41;;;-146.96;100.00
39105;BME280;46464;51.154;13.812;2023-11-21T13:20:49;52661.94;;;-146.96;100.00